createdAt,value
2018-07-08T00:00:24.685Z,64.40
2018-07-08T00:02:51.896Z,64.36
2018-07-08T00:05:19.927Z,63.86
2018-07-08T00:07:47.065Z,64.04
2018-07-08T00:10:14.364Z,64.68
2018-07-08T00:12:41.512Z,64.66
2018-07-08T00:15:08.652Z,64.70
2018-07-08T00:17:35.852Z,65.46
2018-07-08T00:20:03.082Z,65.83
2018-07-08T00:22:31.065Z,65.96
2018-07-08T00:24:58.350Z,65.94
2018-07-08T00:27:25.477Z,65.95
2018-07-08T00:29:52.600Z,66.20
2018-07-08T00:32:20.125Z,66.48
2018-07-08T00:34:47.755Z,66.06
2018-07-08T00:37:14.951Z,66.20
2018-07-08T00:39:42.274Z,66.51
2018-07-08T00:42:09.492Z,66.09
2018-07-08T00:44:36.653Z,66.21
2018-07-08T00:47:04.049Z,66.45
2018-07-08T00:49:31.228Z,66.79
2018-07-08T00:51:58.391Z,66.28
2018-07-08T00:54:25.609Z,65.92
2018-07-08T00:56:52.748Z,66.39
2018-07-08T00:59:20.005Z,66.30
2018-07-08T01:01:47.582Z,65.88
2018-07-08T01:04:14.704Z,65.85
2018-07-08T01:06:42.824Z,66.24
2018-07-08T01:09:10.065Z,66.58
2018-07-08T01:11:37.313Z,66.13
2018-07-08T01:14:04.608Z,66.02
2018-07-08T01:16:31.848Z,66.22
2018-07-08T01:18:58.992Z,66.28
2018-07-08T01:21:26.151Z,67.35
2018-07-08T01:23:54.005Z,67.35
2018-07-08T01:26:21.200Z,67.38
2018-07-08T01:28:48.964Z,67.55
2018-07-08T01:31:17.223Z,68.05
2018-07-08T01:33:44.367Z,67.89
2018-07-08T01:36:11.561Z,67.88
2018-07-08T01:38:38.818Z,68.00
2018-07-08T01:41:06.082Z,68.35
2018-07-08T01:43:33.251Z,68.44
2018-07-08T01:46:00.818Z,68.45
2018-07-08T01:48:28.073Z,68.56
2018-07-08T01:50:55.256Z,68.75
2018-07-08T01:53:22.934Z,68.75
2018-07-08T01:55:50.069Z,68.17
2018-07-08T01:58:17.232Z,68.68
2018-07-08T02:00:44.530Z,69.05
2018-07-08T02:03:11.720Z,69.12
2018-07-08T02:05:39.041Z,69.32
2018-07-08T02:08:06.311Z,69.38
2018-07-08T02:10:33.424Z,69.33
2018-07-08T02:13:00.609Z,70.40
2018-07-08T02:15:28.280Z,70.52
2018-07-08T02:17:55.439Z,71.01
2018-07-08T02:20:22.620Z,71.16
2018-07-08T02:22:49.820Z,70.89
2018-07-08T02:25:17.062Z,71.36
2018-07-08T02:27:44.232Z,70.99
2018-07-08T02:30:11.893Z,71.01
2018-07-08T02:32:39.255Z,71.24
2018-07-08T02:35:06.392Z,71.18
2018-07-08T02:37:33.692Z,70.95
2018-07-08T02:40:00.880Z,70.80
2018-07-08T02:42:28.032Z,70.94
2018-07-08T02:44:55.546Z,71.42
2018-07-08T02:47:23.094Z,70.80
2018-07-08T02:49:50.772Z,70.76
2018-07-08T02:52:19.681Z,70.96
2018-07-08T02:54:46.828Z,71.48
2018-07-08T02:57:14.193Z,71.29
2018-07-08T02:59:41.430Z,71.25
2018-07-08T03:02:08.755Z,71.04
2018-07-08T03:04:35.972Z,71.10
2018-07-08T03:07:03.177Z,71.30
2018-07-08T03:09:30.369Z,71.43
2018-07-08T03:11:57.524Z,71.05
2018-07-08T03:14:25.189Z,71.27
2018-07-08T03:16:52.437Z,71.42
2018-07-08T03:19:19.638Z,72.12
2018-07-08T03:21:46.806Z,72.18
2018-07-08T03:24:13.925Z,71.79
2018-07-08T03:26:41.179Z,72.17
2018-07-08T03:29:08.452Z,72.58
2018-07-08T03:31:35.580Z,72.66
2018-07-08T03:34:02.732Z,72.38
2018-07-08T03:36:29.912Z,72.63
2018-07-08T03:38:57.943Z,72.87
2018-07-08T03:41:25.146Z,72.64
2018-07-08T03:43:52.308Z,73.08
2018-07-08T03:46:19.404Z,73.07
2018-07-08T03:48:46.552Z,73.36
2018-07-08T03:51:13.771Z,73.44
2018-07-08T03:53:40.913Z,73.63
2018-07-08T03:56:08.136Z,73.69
2018-07-08T03:58:35.306Z,73.94
2018-07-08T04:01:02.435Z,73.95
2018-07-08T04:03:29.914Z,73.92
2018-07-08T04:05:57.357Z,73.69
2018-07-08T04:08:24.488Z,72.82
2018-07-08T04:10:51.985Z,73.43
2018-07-08T04:13:19.164Z,72.59
2018-07-08T04:15:46.408Z,73.31
2018-07-08T04:18:13.590Z,73.30
2018-07-08T04:20:40.730Z,73.08
2018-07-08T04:23:08.102Z,73.86
2018-07-08T04:25:35.312Z,73.07
2018-07-08T04:28:03.065Z,72.66
2018-07-08T04:30:30.828Z,71.81
2018-07-08T04:32:57.988Z,72.35
2018-07-08T04:35:25.292Z,71.77
2018-07-08T04:37:52.403Z,72.04
2018-07-08T04:40:19.676Z,71.48
2018-07-08T04:42:46.931Z,70.83
2018-07-08T04:45:14.036Z,70.98
2018-07-08T04:47:41.136Z,71.46
2018-07-08T04:50:08.408Z,70.87
2018-07-08T04:52:35.588Z,70.71
2018-07-08T04:55:02.888Z,70.09
2018-07-08T04:57:30.073Z,70.70
2018-07-08T04:59:57.433Z,70.40
2018-07-08T05:02:24.555Z,70.12
2018-07-08T05:04:51.778Z,69.59
2018-07-08T05:07:18.956Z,70.02
2018-07-08T05:09:46.084Z,69.74
2018-07-08T05:12:13.241Z,69.93
2018-07-08T05:14:40.400Z,70.14
2018-07-08T05:17:07.631Z,70.51
2018-07-08T05:19:34.843Z,70.61
2018-07-08T05:22:01.973Z,71.26
2018-07-08T05:24:29.080Z,70.69
2018-07-08T05:26:56.284Z,70.96
2018-07-08T05:29:24.306Z,70.44
2018-07-08T05:31:51.484Z,71.14
2018-07-08T05:34:18.677Z,69.39
2018-07-08T05:36:45.852Z,69.10
2018-07-08T05:39:13.054Z,68.75
2018-07-08T05:41:40.200Z,68.81
2018-07-08T05:44:07.320Z,68.20
2018-07-08T05:46:34.473Z,68.01
2018-07-08T05:49:01.759Z,67.31
2018-07-08T05:51:28.936Z,67.93
2018-07-08T05:53:56.186Z,67.67
2018-07-08T05:56:24.488Z,66.55
2018-07-08T05:58:51.860Z,66.29
2018-07-08T06:01:19.071Z,66.07
2018-07-08T06:03:46.204Z,66.02
2018-07-08T06:06:13.328Z,66.10
2018-07-08T06:08:40.448Z,65.76
2018-07-08T06:11:08.055Z,65.18
2018-07-08T06:13:35.277Z,65.45
2018-07-08T06:16:02.437Z,65.66
2018-07-08T06:18:29.606Z,64.87
2018-07-08T06:20:56.735Z,65.15
2018-07-08T06:23:23.843Z,65.07
2018-07-08T06:25:51.146Z,65.44
2018-07-08T06:28:18.264Z,64.84
2018-07-08T06:30:45.844Z,64.86
2018-07-08T06:33:12.991Z,64.75
2018-07-08T06:35:40.119Z,65.19
2018-07-08T06:38:07.656Z,65.49
2018-07-08T06:40:34.856Z,65.01
2018-07-08T06:43:02.029Z,65.29
2018-07-08T06:45:29.312Z,65.08
2018-07-08T06:47:56.532Z,64.13
2018-07-08T06:50:23.782Z,64.84
2018-07-08T06:52:50.928Z,65.29
2018-07-08T06:55:18.130Z,64.31
2018-07-08T06:57:45.290Z,63.94
2018-07-08T07:00:13.055Z,64.68
2018-07-08T07:02:40.248Z,65.00
2018-07-08T07:05:07.470Z,65.01
2018-07-08T07:07:34.639Z,64.77
2018-07-08T07:10:01.838Z,65.17
2018-07-08T07:12:29.070Z,64.89
2018-07-08T07:14:56.197Z,65.50
2018-07-08T07:17:23.420Z,65.42
2018-07-08T07:19:50.564Z,66.17
2018-07-08T07:22:17.684Z,64.91
2018-07-08T07:24:44.865Z,65.11
2018-07-08T07:27:12.016Z,65.23
2018-07-08T07:29:39.191Z,65.53
2018-07-08T07:32:08.725Z,64.82
2018-07-08T07:34:35.910Z,65.60
2018-07-08T07:37:03.222Z,65.95
2018-07-08T07:39:30.536Z,64.62
2018-07-08T07:41:57.683Z,63.14
2018-07-08T07:44:24.835Z,62.77
2018-07-08T07:46:52.011Z,61.22
2018-07-08T07:49:19.160Z,62.26
2018-07-08T07:51:46.371Z,62.11
2018-07-08T07:54:13.536Z,60.98
2018-07-08T07:56:40.704Z,59.68
2018-07-08T07:59:07.883Z,61.01
2018-07-08T08:01:35.024Z,58.78
2018-07-08T08:04:02.148Z,58.01
2018-07-08T08:06:29.317Z,57.93
2018-07-08T08:08:57.409Z,57.23
2018-07-08T08:11:24.546Z,57.89
2018-07-08T08:14:00.889Z,57.31
2018-07-08T08:16:28.132Z,57.45
2018-07-08T08:18:55.582Z,57.61
2018-07-08T08:21:23.192Z,58.63
2018-07-08T08:23:50.373Z,58.20
2018-07-08T08:26:17.916Z,58.65
2018-07-08T08:28:45.076Z,60.30
2018-07-08T08:31:12.199Z,57.59
2018-07-08T08:33:39.963Z,56.66
2018-07-08T08:36:07.160Z,57.52
2018-07-08T08:38:34.285Z,57.60
2018-07-08T08:41:01.450Z,57.69
2018-07-08T08:43:28.606Z,57.70
2018-07-08T08:45:55.757Z,57.19
2018-07-08T08:48:22.897Z,57.03
2018-07-08T08:50:50.152Z,57.21
2018-07-08T08:53:17.332Z,57.87
2018-07-08T08:55:44.464Z,59.42
2018-07-08T08:58:11.633Z,58.79
2018-07-08T09:00:38.804Z,59.54
2018-07-08T09:03:05.964Z,59.54
2018-07-08T09:05:33.138Z,58.87
2018-07-08T09:08:00.296Z,56.41
2018-07-08T09:10:27.444Z,54.23
2018-07-08T09:12:54.612Z,56.10
2018-07-08T09:15:21.754Z,56.33
2018-07-08T09:17:48.864Z,56.48
2018-07-08T09:20:16.041Z,56.89
2018-07-08T09:22:43.174Z,57.68
2018-07-08T09:25:10.273Z,56.92
2018-07-08T09:27:37.420Z,56.83
2018-07-08T09:30:04.653Z,54.95
2018-07-08T09:32:31.749Z,55.43
2018-07-08T09:35:00.648Z,57.00
2018-07-08T09:37:27.801Z,55.37
2018-07-08T09:39:54.947Z,54.33
2018-07-08T09:42:22.117Z,53.55
2018-07-08T09:44:49.223Z,51.98
2018-07-08T09:47:16.339Z,52.72
2018-07-08T09:49:43.509Z,52.18
2018-07-08T09:52:10.734Z,52.18
2018-07-08T09:54:37.909Z,51.54
2018-07-08T09:57:05.177Z,52.87
2018-07-08T09:59:32.328Z,54.95
2018-07-08T10:01:59.471Z,55.04
2018-07-08T10:04:26.759Z,54.44
2018-07-08T10:06:54.356Z,54.53
2018-07-08T10:09:22.674Z,52.99
2018-07-08T10:11:49.884Z,54.51
2018-07-08T10:14:19.461Z,51.20
2018-07-08T10:16:46.641Z,50.16
2018-07-08T10:19:15.036Z,49.92
2018-07-08T10:21:42.290Z,49.19
2018-07-08T10:24:09.745Z,49.56
2018-07-08T10:26:36.992Z,47.65
2018-07-08T10:29:04.450Z,47.78
2018-07-08T10:31:45.032Z,48.41
2018-07-08T10:34:12.196Z,48.20
2018-07-08T10:36:39.483Z,47.70
2018-07-08T10:39:07.927Z,47.98
2018-07-08T10:41:35.078Z,47.74
2018-07-08T10:44:02.316Z,46.72
2018-07-08T10:46:29.604Z,47.39
2018-07-08T10:48:56.765Z,49.12
2018-07-08T10:51:23.937Z,47.21
2018-07-08T10:53:51.170Z,46.26
2018-07-08T10:56:18.448Z,47.72
2018-07-08T10:58:45.601Z,47.76
2018-07-08T11:01:12.790Z,44.38
2018-07-08T11:03:39.933Z,46.79
2018-07-08T11:06:07.066Z,48.13
2018-07-08T11:08:34.307Z,49.19
2018-07-08T11:11:01.537Z,49.75
2018-07-08T11:13:28.671Z,50.30
2018-07-08T11:15:55.839Z,49.29
2018-07-08T11:18:23.009Z,50.00
2018-07-08T11:20:50.180Z,49.61
2018-07-08T11:23:17.362Z,50.42
2018-07-08T11:25:44.533Z,50.65
2018-07-08T11:28:11.627Z,51.26
2018-07-08T11:30:39.128Z,50.62
2018-07-08T11:33:06.755Z,49.33
2018-07-08T11:35:33.936Z,48.73
2018-07-08T11:38:01.157Z,49.41
2018-07-08T11:40:28.354Z,49.82
2018-07-08T11:42:55.520Z,49.81
2018-07-08T11:45:22.904Z,50.23
2018-07-08T11:47:50.009Z,50.76
2018-07-08T11:50:17.161Z,50.51
2018-07-08T11:52:44.359Z,51.48
2018-07-08T11:55:11.524Z,51.72
2018-07-08T11:57:38.707Z,51.09
2018-07-08T12:00:06.041Z,51.34
2018-07-08T12:02:33.292Z,51.25
2018-07-08T12:05:00.442Z,51.71
2018-07-08T12:07:27.683Z,51.13
2018-07-08T12:09:54.855Z,52.76
2018-07-08T12:12:22.057Z,52.34
2018-07-08T12:14:49.212Z,50.90
2018-07-08T12:17:16.388Z,51.10
2018-07-08T12:19:43.508Z,51.08
2018-07-08T12:22:10.644Z,50.20
2018-07-08T12:24:37.759Z,49.31
2018-07-08T12:27:05.020Z,51.35
2018-07-08T12:29:32.182Z,49.19
2018-07-08T12:31:59.309Z,48.82
2018-07-08T12:34:26.424Z,49.58
2018-07-08T12:36:53.679Z,49.13
2018-07-08T12:39:20.826Z,48.01
2018-07-08T12:41:48.004Z,47.04
2018-07-08T12:44:15.239Z,46.33
2018-07-08T12:46:42.319Z,44.59
2018-07-08T12:49:09.472Z,46.50
2018-07-08T12:51:36.692Z,43.33
2018-07-08T12:54:03.914Z,44.67
2018-07-08T12:56:31.093Z,44.76
2018-07-08T12:58:58.352Z,45.50
2018-07-08T13:01:25.504Z,46.20
2018-07-08T13:03:52.649Z,45.92
2018-07-08T13:06:21.827Z,45.70
2018-07-08T13:08:51.383Z,45.48
2018-07-08T13:11:19.598Z,46.49
2018-07-08T13:13:46.902Z,46.35
2018-07-08T13:16:14.150Z,45.04
2018-07-08T13:18:41.368Z,46.09
2018-07-08T13:21:08.573Z,45.97
2018-07-08T13:23:36.281Z,45.64
2018-07-08T13:26:03.515Z,46.71
2018-07-08T13:28:30.737Z,47.07
2018-07-08T13:30:58.784Z,46.26
2018-07-08T13:33:26.280Z,49.22
2018-07-08T13:35:53.589Z,46.31
2018-07-08T13:38:21.306Z,44.72
2018-07-08T13:40:48.464Z,44.63
2018-07-08T13:43:16.330Z,43.45
2018-07-08T13:45:44.280Z,44.65
2018-07-08T13:48:12.502Z,43.97
2018-07-08T13:50:41.276Z,43.95
2018-07-08T13:53:09.325Z,43.98
2018-07-08T13:55:36.996Z,42.85
2018-07-08T13:58:04.466Z,42.05
2018-07-08T14:00:31.734Z,43.65
2018-07-08T14:02:58.923Z,40.92
2018-07-08T14:05:26.139Z,39.61
2018-07-08T14:07:53.298Z,39.70
2018-07-08T14:10:20.435Z,38.84
2018-07-08T14:12:47.610Z,40.56
2018-07-08T14:15:14.733Z,39.85
2018-07-08T14:17:41.877Z,39.96
2018-07-08T14:20:09.113Z,39.31
2018-07-08T14:22:36.319Z,37.77
2018-07-08T14:25:03.609Z,38.03
2018-07-08T14:27:30.821Z,37.38
2018-07-08T14:29:58.050Z,36.20
2018-07-08T14:32:25.664Z,36.12
2018-07-08T14:34:52.898Z,35.92
2018-07-08T14:37:20.024Z,37.66
2018-07-08T14:39:47.191Z,36.61
2018-07-08T14:42:14.382Z,36.63
2018-07-08T14:44:41.572Z,36.93
2018-07-08T14:47:08.677Z,37.82
2018-07-08T14:49:36.012Z,38.07
2018-07-08T14:52:03.143Z,36.67
2018-07-08T14:54:30.297Z,36.65
2018-07-08T14:56:57.973Z,36.80
2018-07-08T14:59:25.244Z,35.61
2018-07-08T15:01:52.415Z,33.56
2018-07-08T15:04:19.654Z,30.09
2018-07-08T15:06:46.867Z,27.94
2018-07-08T15:09:14.490Z,26.01
2018-07-08T15:11:42.730Z,24.40
2018-07-08T15:14:09.892Z,24.22
2018-07-08T15:16:37.302Z,20.40
2018-07-08T15:19:05.579Z,18.23
2018-07-08T15:21:33.209Z,17.84
2018-07-08T15:24:00.820Z,17.87
2018-07-08T15:26:28.460Z,17.36
2018-07-08T15:28:56.028Z,17.67
2018-07-08T15:31:24.040Z,16.45
2018-07-08T15:33:55.515Z,17.32
2018-07-08T15:36:24.555Z,17.79
2018-07-08T15:38:51.766Z,17.18
2018-07-08T15:41:18.941Z,17.37
2018-07-08T15:43:46.910Z,17.95
2018-07-08T15:46:14.184Z,19.16
2018-07-08T15:48:41.399Z,19.29
2018-07-08T15:51:08.660Z,19.29
2018-07-08T15:53:36.244Z,19.94
2018-07-08T15:56:03.574Z,21.42
2018-07-08T15:58:31.043Z,22.67
2018-07-08T16:00:59.702Z,24.69
2018-07-08T16:03:28.393Z,25.57
2018-07-08T16:05:56.552Z,27.59
2018-07-08T16:08:24.329Z,29.26
2018-07-08T16:10:51.900Z,29.03
2018-07-08T16:13:19.500Z,30.79
2018-07-08T16:15:46.976Z,29.71
2018-07-08T16:18:14.187Z,31.83
2018-07-08T16:20:41.363Z,31.94
2018-07-08T16:23:08.966Z,32.29
2018-07-08T16:25:36.162Z,34.42
2018-07-08T16:28:03.496Z,34.87
2018-07-08T16:30:31.573Z,35.15
2018-07-08T16:33:03.416Z,34.31
2018-07-08T16:35:30.544Z,34.50
2018-07-08T16:37:57.637Z,35.23
2018-07-08T16:40:25.462Z,34.94
2018-07-08T16:42:53.157Z,35.78
2018-07-08T16:45:21.097Z,35.79
2018-07-08T16:47:48.880Z,36.28
2018-07-08T16:50:17.515Z,35.68
2018-07-08T16:52:46.090Z,36.76
2018-07-08T16:55:16.084Z,36.02
2018-07-08T16:57:45.652Z,36.28
2018-07-08T17:00:16.069Z,37.11
2018-07-08T17:02:45.691Z,37.13
2018-07-08T17:05:15.195Z,38.24
2018-07-08T17:07:43.832Z,37.57
2018-07-08T17:10:11.044Z,37.29
2018-07-08T17:12:39.415Z,37.73
2018-07-08T17:15:06.994Z,37.57
2018-07-08T17:17:34.152Z,37.92
2018-07-08T17:20:01.312Z,37.91
2018-07-08T17:22:28.654Z,37.96
2018-07-08T17:24:56.416Z,38.37
2018-07-08T17:27:24.265Z,38.94
2018-07-08T17:29:51.704Z,39.84
2018-07-08T17:32:19.239Z,38.63
2018-07-08T17:34:46.987Z,39.02
2018-07-08T17:37:16.154Z,39.36
2018-07-08T17:39:44.419Z,39.94
2018-07-08T17:42:14.617Z,41.20
2018-07-08T17:44:42.988Z,39.87
2018-07-08T17:47:11.283Z,40.23
2018-07-08T17:49:39.259Z,39.79
2018-07-08T17:52:06.545Z,40.21
2018-07-08T17:54:33.749Z,41.53
2018-07-08T17:57:01.436Z,41.36
2018-07-08T17:59:28.911Z,40.17
2018-07-08T18:01:56.083Z,39.63
2018-07-08T18:04:23.468Z,40.04
2018-07-08T18:06:52.035Z,40.51
2018-07-08T18:09:19.800Z,40.64
2018-07-08T18:11:47.236Z,39.64
2018-07-08T18:14:15.882Z,39.91
2018-07-08T18:16:43.925Z,40.33
2018-07-08T18:19:11.079Z,39.87
2018-07-08T18:21:38.252Z,40.62
2018-07-08T18:24:06.853Z,42.04
2018-07-08T18:26:34.120Z,40.12
2018-07-08T18:29:01.377Z,41.34
2018-07-08T18:31:28.485Z,41.45
2018-07-08T18:33:55.647Z,42.29
2018-07-08T18:36:23.120Z,41.82
2018-07-08T18:38:51.331Z,42.31
2018-07-08T18:41:18.781Z,41.65
2018-07-08T18:43:46.656Z,41.97
2018-07-08T18:46:14.265Z,41.80
2018-07-08T18:48:43.469Z,43.73
2018-07-08T18:51:10.716Z,43.92
2018-07-08T18:53:37.814Z,43.45
2018-07-08T18:56:05.008Z,42.80
2018-07-08T18:58:32.325Z,44.30
2018-07-08T19:00:59.495Z,43.39
2018-07-08T19:03:26.595Z,43.12
2018-07-08T19:05:53.756Z,43.53
2018-07-08T19:08:21.352Z,43.31
2018-07-08T19:10:48.853Z,43.11
2018-07-08T19:13:16.956Z,44.11
2018-07-08T19:15:44.615Z,43.92
2018-07-08T19:18:11.994Z,44.40
2018-07-08T19:20:39.323Z,44.30
2018-07-08T19:23:06.517Z,44.98
2018-07-08T19:25:33.636Z,45.80
2018-07-08T19:28:00.936Z,46.90
2018-07-08T19:30:29.395Z,46.20
2018-07-08T19:32:56.612Z,48.29
2018-07-08T19:35:23.939Z,51.05
2018-07-08T19:37:51.474Z,50.04
2018-07-08T19:40:20.030Z,49.73
2018-07-08T19:42:47.969Z,47.50
2018-07-08T19:45:16.767Z,49.24
2018-07-08T19:47:45.046Z,49.93
2018-07-08T19:50:13.027Z,47.99
2018-07-08T19:52:40.243Z,50.19
2018-07-08T19:55:07.355Z,49.73
2018-07-08T19:57:34.489Z,49.22
2018-07-08T20:00:01.851Z,48.25
2018-07-08T20:02:29.186Z,48.66
2018-07-08T20:04:56.908Z,48.33
2018-07-08T20:07:24.159Z,48.49
2018-07-08T20:09:51.460Z,54.67
2018-07-08T20:12:19.249Z,52.69
2018-07-08T20:14:48.710Z,55.67
2018-07-08T20:17:17.401Z,56.95
2018-07-08T20:19:46.356Z,57.33
2018-07-08T20:22:14.891Z,57.94
2018-07-08T20:24:43.783Z,59.24
2018-07-08T20:27:11.015Z,59.52
2018-07-08T20:29:44.355Z,61.19
2018-07-08T20:32:11.534Z,60.54
2018-07-08T20:34:38.699Z,60.10
2018-07-08T20:37:05.901Z,60.87
2018-07-08T20:39:33.032Z,61.05
2018-07-08T20:42:00.373Z,62.97
2018-07-08T20:44:27.658Z,62.66
2018-07-08T20:47:00.625Z,60.75
2018-07-08T20:49:27.777Z,60.68
2018-07-08T20:51:56.494Z,60.92
2018-07-08T20:54:23.755Z,64.08
2018-07-08T20:56:51.060Z,63.54
2018-07-08T20:59:18.369Z,64.52
2018-07-08T21:01:45.725Z,63.79
2018-07-08T21:04:13.043Z,64.15
2018-07-08T21:06:40.199Z,64.30
2018-07-08T21:09:07.357Z,64.46
2018-07-08T21:11:34.455Z,64.47
2018-07-08T21:14:01.584Z,65.66
2018-07-08T21:16:28.757Z,65.97
2018-07-08T21:18:55.888Z,66.55
2018-07-08T21:21:23.004Z,66.03
2018-07-08T21:23:50.154Z,64.53
2018-07-08T21:26:17.275Z,65.71
2018-07-08T21:28:44.439Z,64.46
2018-07-08T21:31:11.623Z,65.17
2018-07-08T21:33:39.008Z,64.96
2018-07-08T21:36:07.068Z,65.08
2018-07-08T21:38:34.596Z,64.06
2018-07-08T21:41:02.065Z,65.01
2018-07-08T21:43:29.283Z,65.39
2018-07-08T21:45:56.449Z,65.45
2018-07-08T21:48:23.573Z,66.27
2018-07-08T21:50:50.676Z,64.86
2018-07-08T21:53:18.060Z,65.91
2018-07-08T21:55:45.165Z,65.04
2018-07-08T21:58:12.348Z,64.18
2018-07-08T22:00:53.465Z,61.55
2018-07-08T22:03:20.628Z,62.27
2018-07-08T22:05:47.984Z,62.67
2018-07-08T22:08:15.198Z,62.69
2018-07-08T22:10:42.348Z,60.42
2018-07-08T22:13:09.452Z,61.15
2018-07-08T22:15:36.687Z,63.08
2018-07-08T22:18:03.852Z,62.06
2018-07-08T22:20:30.953Z,62.83
2018-07-08T22:22:58.119Z,64.44
2018-07-08T22:25:25.828Z,64.27
2018-07-08T22:27:52.952Z,62.53
2018-07-08T22:30:20.879Z,64.62
2018-07-08T22:32:48.003Z,62.19
2018-07-08T22:35:15.748Z,63.25
2018-07-08T22:37:43.447Z,62.25
2018-07-08T22:40:10.616Z,64.83
2018-07-08T22:42:37.724Z,64.83
2018-07-08T22:45:04.920Z,65.61
2018-07-08T22:47:32.057Z,66.24
2018-07-08T22:49:59.192Z,65.78
2018-07-08T22:52:26.408Z,63.86
2018-07-08T22:54:53.896Z,62.38
2018-07-08T22:57:21.086Z,62.26
2018-07-08T22:59:59.823Z,60.99
2018-07-08T23:02:41.371Z,60.60
2018-07-08T23:05:08.573Z,61.84
2018-07-08T23:07:35.704Z,61.82
2018-07-08T23:10:02.896Z,64.85
2018-07-08T23:12:30.100Z,64.85
2018-07-08T23:14:57.308Z,62.62
2018-07-08T23:17:24.436Z,61.05
2018-07-08T23:19:51.586Z,62.36
2018-07-08T23:22:19.699Z,59.93
2018-07-08T23:24:46.844Z,58.57
2018-07-08T23:27:14.004Z,59.28
2018-07-08T23:29:41.508Z,60.99
2018-07-08T23:32:08.654Z,60.63
2018-07-08T23:34:35.820Z,60.56
2018-07-08T23:37:02.944Z,61.81
2018-07-08T23:39:30.148Z,63.54
2018-07-08T23:41:57.289Z,63.81
2018-07-08T23:44:24.415Z,64.25
2018-07-08T23:46:51.532Z,65.32
2018-07-08T23:49:18.768Z,60.92
2018-07-08T23:51:45.912Z,61.39
2018-07-08T23:54:13.062Z,61.60
2018-07-08T23:56:40.218Z,62.87
2018-07-08T23:59:07.347Z,58.32
